Time;durP1;ratioP1;P1;durP2;ratioP2;P2;SDS_P1;SDS_P2;PMS_P1;PMS_P2;Temp;Humidity;BMP_temperature;BMP_pressure;BME280_temperature;BME280_humidity;BME280_pressure;Samples;Min_cycle;Max_cycle;Signal;HPM_P1;HPM_P2
2022/08/02 00:00:07;;;;;;;;;;;;;;;24.57;48.31;101329.47;4995729;28;5337;-63
2022/08/02 00:02:33;;;;;;;;;;;;;;;24.55;48.51;101333.03;4994376;28;5392;-62
2022/08/02 00:05:00;;;;;;;;;;;;;;;24.55;48.47;101333.03;4998648;28;4181;-62
2022/08/02 00:07:26;;;;;;;;;;;;;;;24.55;48.42;101338.09;4994764;28;5258;-62
2022/08/02 00:09:52;;;;;;;;;;;;;;;24.54;48.50;101337.34;4996834;28;4403;-62
2022/08/02 00:12:19;;;;;;;;;;;;;;;24.55;48.37;101349.66;4996646;28;4226;-63
2022/08/02 00:14:45;;;;;;;;;;;;;;;24.54;48.53;101342.41;5000309;28;4050;-62
2022/08/02 00:17:11;;;;;;;;;;;;;;;24.51;48.12;101350.28;4995799;28;4223;-63
2022/08/02 00:19:38;;;;;;;;;;;;;;;24.52;48.17;101345.97;4998189;28;4259;-62
2022/08/02 00:22:04;;;;;;;;;;;;;;;24.51;48.18;101343.72;4992607;28;4222;-62
2022/08/02 00:24:31;;;;;;;;;;;;;;;24.48;48.30;101333.50;4998257;28;5296;-62
2022/08/02 00:26:57;;;;;;;;;;;;;;;24.48;48.13;101334.22;4997627;28;4390;-62
2022/08/02 00:29:23;;;;;;;;;;;;;;;24.48;48.25;101342.16;4998113;28;4211;-62
2022/08/02 00:31:50;;;;;;;;;;;;;;;24.46;48.13;101331.22;4996090;28;4222;-62
2022/08/02 00:34:16;;;;;;;;;;;;;;;24.46;48.10;101328.31;4996352;28;5357;-62
2022/08/02 00:36:56;;;;;;;;;;;;;;;24.46;48.10;101325.44;4996875;28;4020;-63
2022/08/02 00:39:22;;;;;;;;;;;;;;;24.45;48.31;101321.06;4995883;28;4231;-63
2022/08/02 00:42:00;;;;;;;;;;;;;;;24.45;48.06;101329.75;4997469;28;4381;-63
2022/08/02 00:44:27;;;;;;;;;;;;;;;24.45;48.01;101323.97;4997441;28;4201;-63
2022/08/02 00:46:53;;;;;;;;;;;;;;;24.45;48.24;101332.66;4997708;28;4222;-63
2022/08/02 00:49:19;;;;;;;;;;;;;;;24.42;48.01;101331.84;4995400;28;4187;-63
2022/08/02 00:51:46;;;;;;;;;;;;;;;24.43;47.99;101329.69;4995567;28;5359;-63
2022/08/02 00:54:13;;;;;;;;;;;;;;;24.42;48.38;101331.09;4997413;28;4171;-63
2022/08/02 00:56:40;;;;;;;;;;;;;;;24.40;48.38;101334.66;4998854;28;5484;-63
2022/08/02 00:59:16;;;;;;;;;;;;;;;24.39;48.18;101332.41;4998014;28;4283;-63
2022/08/02 01:01:42;;;;;;;;;;;;;;;24.40;47.99;101337.53;4997025;28;4216;-63
2022/08/02 01:04:23;;;;;;;;;;;;;;;24.39;48.08;101346.88;4998933;28;5235;-63
2022/08/02 01:06:56;;;;;;;;;;;;;;;24.37;48.31;101341.78;4998113;28;4060;-63
2022/08/02 01:09:23;;;;;;;;;;;;;;;24.36;48.34;101340.28;4995693;28;4186;-63
2022/08/02 01:11:49;;;;;;;;;;;;;;;24.38;48.28;101340.34;4995843;28;4196;-63
2022/08/02 01:14:16;;;;;;;;;;;;;;;24.37;47.97;101352.59;4999656;28;4331;-63
2022/08/02 01:16:45;;;;;;;;;;;;;;;24.38;48.20;101348.31;5000149;28;4264;-62
2022/08/02 01:19:32;;;;;;;;;;;;;;;24.40;48.11;101352.00;4995515;28;4138;-63
2022/08/02 01:22:04;;;;;;;;;;;;;;;24.42;48.12;101357.16;4986523;28;4174;-62
2022/08/02 01:24:43;;;;;;;;;;;;;;;24.43;48.22;101367.31;4996913;28;4274;-62
2022/08/02 01:27:19;;;;;;;;;;;;;;;24.42;48.23;101360.03;4993815;28;4158;-63
2022/08/02 01:29:48;;;;;;;;;;;;;;;24.38;48.26;101359.88;4991772;28;4381;-63
2022/08/02 01:32:15;;;;;;;;;;;;;;;24.37;48.43;101359.16;4990734;28;4371;-62
2022/08/02 01:34:46;;;;;;;;;;;;;;;24.40;48.42;101354.19;4996545;28;4471;-62
2022/08/02 01:37:14;;;;;;;;;;;;;;;24.39;48.62;101349.78;4995283;28;4195;-62
2022/08/02 01:39:41;;;;;;;;;;;;;;;24.37;48.73;101358.38;4995113;28;5507;-62
2022/08/02 01:42:07;;;;;;;;;;;;;;;24.37;48.71;101358.38;4999765;28;4325;-62
2022/08/02 01:44:35;;;;;;;;;;;;;;;24.35;48.49;101349.63;4997721;28;4100;-62
2022/08/02 01:47:02;;;;;;;;;;;;;;;24.35;48.49;101358.31;4998885;28;5182;-62
2022/08/02 01:49:29;;;;;;;;;;;;;;;24.34;48.30;101359.72;4996800;28;4283;-62
2022/08/02 01:54:41;;;;;;;;;;;;;;;24.33;48.53;101346.69;4993055;28;4357;-62
2022/08/02 01:57:07;;;;;;;;;;;;;;;24.32;48.57;101348.81;4994189;28;4233;-62
2022/08/02 01:59:34;;;;;;;;;;;;;;;24.33;48.47;101352.47;4990170;28;4152;-62
2022/08/02 02:02:00;;;;;;;;;;;;;;;24.32;48.46;101353.84;5001649;28;4278;-62
2022/08/02 02:04:28;;;;;;;;;;;;;;;24.32;48.46;101356.75;4995242;28;4179;-62
2022/08/02 02:06:54;;;;;;;;;;;;;;;24.31;48.63;101358.16;4988930;28;4169;-62
2022/08/02 02:09:21;;;;;;;;;;;;;;;24.31;48.64;101352.38;4997552;28;5393;-62
2022/08/02 02:11:47;;;;;;;;;;;;;;;24.31;48.26;101353.13;4995297;28;4189;-62
2022/08/02 02:14:34;;;;;;;;;;;;;;;24.31;48.41;101352.38;4995930;28;4208;-62
2022/08/02 02:17:00;;;;;;;;;;;;;;;24.31;48.46;101363.97;4994115;28;5568;-62
2022/08/02 02:19:26;;;;;;;;;;;;;;;24.31;48.59;101361.06;4999231;28;4157;-62
2022/08/02 02:21:53;;;;;;;;;;;;;;;24.29;48.48;101358.09;4992465;28;4210;-62
2022/08/02 02:24:19;;;;;;;;;;;;;;;24.29;48.61;101346.50;4997205;28;5454;-62
2022/08/02 02:26:47;;;;;;;;;;;;;;;24.28;48.75;101357.34;4995084;28;4080;-62
2022/08/02 02:29:18;;;;;;;;;;;;;;;24.27;48.71;101352.22;4995985;28;5382;-62
2022/08/02 02:31:44;;;;;;;;;;;;;;;24.28;48.35;101356.59;4993323;28;4102;-62
2022/08/02 02:34:13;;;;;;;;;;;;;;;24.28;48.62;101356.59;4995348;28;4195;-62
2022/08/02 02:36:40;;;;;;;;;;;;;;;24.28;48.75;101356.59;4997024;28;4243;-62
2022/08/02 02:39:06;;;;;;;;;;;;;;;24.27;48.41;101349.31;4996392;28;4698;-62
2022/08/02 02:41:38;;;;;;;;;;;;;;;24.27;48.32;101355.13;4993744;28;4318;-62
2022/08/02 02:44:05;;;;;;;;;;;;;;;24.26;48.48;101360.16;4996340;28;5140;-62
2022/08/02 02:46:31;;;;;;;;;;;;;;;24.27;48.50;101360.91;4999994;28;4115;-62
2022/08/02 02:48:58;;;;;;;;;;;;;;;24.27;48.31;101366.69;4995959;28;4121;-62
2022/08/02 02:51:24;;;;;;;;;;;;;;;24.24;48.38;101357.94;4998179;28;4089;-62
2022/08/02 02:53:51;;;;;;;;;;;;;;;24.24;48.45;101363.72;4997507;28;4333;-62
2022/08/02 02:56:37;;;;;;;;;;;;;;;24.22;48.34;101366.53;4994820;28;5693;-62
2022/08/02 02:59:03;;;;;;;;;;;;;;;24.22;48.36;101365.78;4992921;28;4282;-62
2022/08/02 03:01:30;;;;;;;;;;;;;;;24.21;48.53;101362.16;4995784;28;4157;-62
2022/08/02 03:04:16;;;;;;;;;;;;;;;24.20;48.30;101371.50;4993015;28;5080;-62
2022/08/02 03:06:42;;;;;;;;;;;;;;;24.20;48.28;101365.72;4997055;28;4562;-62
2022/08/02 03:09:09;;;;;;;;;;;;;;;24.19;48.17;101370.00;4996093;28;4074;-62
2022/08/02 03:11:36;;;;;;;;;;;;;;;24.18;48.18;101375.06;4994901;28;4582;-62
2022/08/02 03:14:03;;;;;;;;;;;;;;;24.18;48.16;101375.06;4990437;28;4249;-62
2022/08/02 03:16:29;;;;;;;;;;;;;;;24.18;47.99;101377.22;4996964;28;4299;-62
2022/08/02 03:18:56;;;;;;;;;;;;;;;24.16;48.06;101385.81;5001859;28;4247;-62
2022/08/02 03:21:22;;;;;;;;;;;;;;;24.17;47.97;101376.47;4995450;28;4177;-62
2022/08/02 03:23:49;;;;;;;;;;;;;;;24.16;47.92;101386.53;4993689;28;5072;-62
2022/08/02 03:26:15;;;;;;;;;;;;;;;24.15;48.09;101384.34;4997380;28;4185;-62
2022/08/02 03:28:43;;;;;;;;;;;;;;;24.16;47.85;101385.81;4991006;28;5383;-62
2022/08/02 03:31:09;;;;;;;;;;;;;;;24.14;47.96;101382.81;4992372;28;4278;-63
2022/08/02 03:33:36;;;;;;;;;;;;;;;24.13;47.69;101379.19;4996583;28;4252;-62
2022/08/02 03:36:07;;;;;;;;;;;;;;;24.14;47.84;101389.34;4996179;28;4195;-62
2022/08/02 03:38:33;;;;;;;;;;;;;;;24.13;47.73;101387.88;4996553;28;4146;-62
2022/08/02 03:41:00;;;;;;;;;;;;;;;24.11;47.76;101384.91;4992829;28;4261;-62
2022/08/02 03:43:26;;;;;;;;;;;;;;;24.11;47.57;101390.69;4992223;28;4185;-62
2022/08/02 03:45:54;;;;;;;;;;;;;;;24.10;47.67;101389.22;4996399;28;4207;-62
2022/08/02 03:48:20;;;;;;;;;;;;;;;24.09;47.45;101396.41;5006796;28;5321;-62
2022/08/02 03:50:59;;;;;;;;;;;;;;;24.08;47.47;101392.03;4995787;28;4099;-62
2022/08/02 03:53:26;;;;;;;;;;;;;;;24.09;47.46;101399.28;5002495;28;4196;-62
2022/08/02 03:55:52;;;;;;;;;;;;;;;24.08;47.49;101403.59;4995823;28;4253;-62
2022/08/02 03:58:21;;;;;;;;;;;;;;;24.09;47.45;101399.28;5003331;28;6242;-62
2022/08/02 04:00:47;;;;;;;;;;;;;;;24.08;47.44;101400.72;4997797;28;4143;-62
2022/08/02 04:03:16;;;;;;;;;;;;;;;24.08;47.30;101397.81;4995329;28;5501;-62
2022/08/02 04:05:45;;;;;;;;;;;;;;;24.08;47.09;101402.88;4996548;28;5301;-62
2022/08/02 04:08:29;;;;;;;;;;;;;;;24.07;47.28;101402.09;4998857;28;4173;-63
2022/08/02 04:13:47;;;;;;;;;;;;;;;24.08;47.10;101417.34;4997093;28;4212;-62
2022/08/02 04:16:17;;;;;;;;;;;;;;;24.07;46.92;101412.94;4999524;28;5264;-62
2022/08/02 04:18:45;;;;;;;;;;;;;;;24.06;46.95;101417.97;4998960;28;4197;-62
2022/08/02 04:21:12;;;;;;;;;;;;;;;24.03;46.87;101414.28;5002750;28;4178;-64
2022/08/02 04:23:38;;;;;;;;;;;;;;;24.03;47.10;101422.22;4997951;28;5611;-62
2022/08/02 04:26:05;;;;;;;;;;;;;;;24.03;47.05;101425.09;4999044;28;5285;-62
2022/08/02 04:28:36;;;;;;;;;;;;;;;24.03;46.81;101422.22;4992204;28;4213;-62
2022/08/02 04:31:02;;;;;;;;;;;;;;;24.01;46.84;101425.75;4997001;28;4419;-62
2022/08/02 04:33:28;;;;;;;;;;;;;;;24.02;46.97;101433.00;4999438;28;4692;-62
2022/08/02 04:35:57;;;;;;;;;;;;;;;24.01;46.77;101425.03;5002992;28;4511;-62
2022/08/02 04:38:25;;;;;;;;;;;;;;;23.99;47.08;101425.66;4995657;28;4499;-62
2022/08/02 04:40:52;;;;;;;;;;;;;;;24.00;46.72;101426.41;5000342;28;4579;-62
2022/08/02 04:43:19;;;;;;;;;;;;;;;23.99;47.13;101433.63;4998474;28;4186;-62
2022/08/02 04:45:46;;;;;;;;;;;;;;;23.97;47.00;101427.75;5001254;28;4063;-61
2022/08/02 04:48:12;;;;;;;;;;;;;;;23.97;47.00;101433.53;4995697;28;4198;-62
2022/08/02 04:50:38;;;;;;;;;;;;;;;23.96;46.91;101420.44;5000336;28;5414;-62
2022/08/02 04:53:05;;;;;;;;;;;;;;;23.97;46.84;101421.97;4994804;28;4266;-62
2022/08/02 04:55:31;;;;;;;;;;;;;;;23.97;46.61;101433.53;4998176;28;4112;-62
2022/08/02 04:57:58;;;;;;;;;;;;;;;23.97;46.67;101428.47;4995321;28;3977;-61
2022/08/02 05:00:24;;;;;;;;;;;;;;;23.95;46.88;101425.50;4995711;28;4516;-61
2022/08/02 05:02:51;;;;;;;;;;;;;;;23.95;47.01;101424.75;4994836;28;4590;-62
2022/08/02 05:05:17;;;;;;;;;;;;;;;23.95;47.02;101424.75;4999952;28;4215;-62
2022/08/02 05:07:44;;;;;;;;;;;;;;;23.95;46.74;101433.44;4996684;28;5316;-61
2022/08/02 05:10:10;;;;;;;;;;;;;;;23.94;46.95;101423.28;4995998;28;4941;-62
2022/08/02 05:12:37;;;;;;;;;;;;;;;23.13;48.01;101432.84;4993758;28;5254;-62
2022/08/02 05:15:04;;;;;;;;;;;;;;;22.71;48.02;101435.31;4995211;28;4154;-70
2022/08/02 05:17:30;;;;;;;;;;;;;;;22.66;48.35;101433.63;4995900;28;4373;-66
2022/08/02 05:19:56;;;;;;;;;;;;;;;22.46;48.48;101434.16;4994367;28;5194;-69
2022/08/02 05:22:23;;;;;;;;;;;;;;;22.62;48.05;101434.19;4990119;28;4210;-65
2022/08/02 05:24:49;;;;;;;;;;;;;;;22.52;48.17;101443.13;4992600;28;4163;-70
2022/08/02 05:27:16;;;;;;;;;;;;;;;22.31;48.46;101440.66;5002885;28;4234;-71
2022/08/02 05:29:48;;;;;;;;;;;;;;;22.58;48.07;101446.28;5006305;28;5578;-75
2022/08/02 05:32:19;;;;;;;;;;;;;;;22.55;48.31;101447.59;5001054;28;4220;-67
2022/08/02 05:34:48;;;;;;;;;;;;;;;22.70;48.18;101456.91;5000806;28;4230;-72
2022/08/02 05:37:15;;;;;;;;;;;;;;;22.69;48.43;101443.88;4997419;28;4197;-73
2022/08/02 05:39:43;;;;;;;;;;;;;;;22.54;48.66;101460.53;4994775;28;5295;-69
2022/08/02 05:42:21;;;;;;;;;;;;;;;21.89;50.16;101460.97;4996384;28;4420;-70
2022/08/02 05:44:47;;;;;;;;;;;;;;;21.88;50.39;101461.66;4996969;28;4260;-70
2022/08/02 05:47:14;;;;;;;;;;;;;;;21.92;50.29;101458.94;4995741;28;4217;-70
2022/08/02 05:49:40;;;;;;;;;;;;;;;22.01;50.04;101460.84;4999112;28;4297;-70
2022/08/02 05:52:07;;;;;;;;;;;;;;;21.71;50.81;101469.47;4992575;28;5624;-71
2022/08/02 05:54:36;;;;;;;;;;;;;;;22.22;49.92;101464.75;4996096;28;5242;-70
2022/08/02 05:57:05;;;;;;;;;;;;;;;22.30;49.92;101470.91;4998108;28;4242;-70
2022/08/02 05:59:52;;;;;;;;;;;;;;;22.30;50.13;101474.53;4996801;28;4179;-70
2022/08/02 06:02:28;;;;;;;;;;;;;;;22.30;49.87;101474.53;4987695;28;5375;-70
2022/08/02 06:05:03;;;;;;;;;;;;;;;22.10;50.42;101473.53;4991108;28;4162;-70
2022/08/02 06:07:29;;;;;;;;;;;;;;;22.29;50.58;101478.09;4996645;28;4173;-70
2022/08/02 06:09:58;;;;;;;;;;;;;;;22.51;49.95;101482.03;4999043;28;4505;-70
2022/08/02 06:12:25;;;;;;;;;;;;;;;22.51;49.97;101482.03;4999202;28;4225;-70
2022/08/02 06:14:51;;;;;;;;;;;;;;;22.37;50.69;101475.56;4996824;28;4372;-70
2022/08/02 06:17:19;;;;;;;;;;;;;;;22.39;50.63;101481.44;4996663;28;5251;-69
2022/08/02 06:19:46;;;;;;;;;;;;;;;22.44;51.02;101477.34;4997185;28;4236;-70
2022/08/02 06:22:18;;;;;;;;;;;;;;;22.78;51.03;101481.13;4995903;28;4329;-66
2022/08/02 06:25:03;;;;;;;;;;;;;;;22.82;49.14;101471.91;5003436;28;4266;-68
2022/08/02 06:27:30;;;;;;;;;;;;;;;23.00;49.26;101472.78;5000320;28;4175;-67
2022/08/02 06:29:56;;;;;;;;;;;;;;;23.12;48.63;101468.94;4988396;28;5567;-67
2022/08/02 06:32:22;;;;;;;;;;;;;;;23.10;48.30;101472.47;5001181;28;4240;-66
2022/08/02 06:34:49;;;;;;;;;;;;;;;23.20;48.39;101475.81;4997801;28;4277;-66
2022/08/02 06:37:41;;;;;;;;;;;;;;;23.24;48.40;101472.34;5003511;28;4355;-64
2022/08/02 06:40:13;;;;;;;;;;;;;;;23.29;48.07;101470.41;4993049;28;4501;-65
2022/08/02 06:42:58;;;;;;;;;;;;;;;23.35;48.27;101465.63;4997724;28;4780;-65
2022/08/02 06:45:24;;;;;;;;;;;;;;;23.36;47.59;101460.59;4999933;28;4361;-65
2022/08/02 06:47:51;;;;;;;;;;;;;;;23.33;47.23;101462.66;4990233;28;4261;-69
2022/08/02 06:50:17;;;;;;;;;;;;;;;23.30;47.38;101458.19;4987976;28;4193;-69
2022/08/02 06:52:44;;;;;;;;;;;;;;;23.51;47.36;101450.41;4996483;28;4115;-67
2022/08/02 06:55:10;;;;;;;;;;;;;;;23.49;47.05;101456.81;4995070;28;4219;-65
2022/08/02 06:57:36;;;;;;;;;;;;;;;23.53;46.83;101453.38;4995510;28;4186;-65
2022/08/02 07:00:07;;;;;;;;;;;;;;;23.36;47.01;101449.75;4998483;28;5267;-65
2022/08/02 07:02:36;;;;;;;;;;;;;;;23.56;46.79;101454.94;4995429;28;5582;-68
2022/08/02 07:05:03;;;;;;;;;;;;;;;23.68;46.63;101455.44;4997212;28;4213;-66
2022/08/02 07:07:29;;;;;;;;;;;;;;;23.53;46.89;101453.38;5000648;28;4153;-65
2022/08/02 07:09:56;;;;;;;;;;;;;;;23.60;46.88;101458.00;5002916;28;4375;-66
2022/08/02 07:12:27;;;;;;;;;;;;;;;23.39;47.25;101453.50;4999480;28;4252;-69
2022/08/02 07:14:53;;;;;;;;;;;;;;;23.61;47.11;101457.34;4992076;28;4186;-66
2022/08/02 07:17:20;;;;;;;;;;;;;;;23.76;46.85;101460.88;4995064;28;4263;-65
2022/08/02 07:19:46;;;;;;;;;;;;;;;23.68;46.68;101455.44;4989715;28;4273;-68
2022/08/02 07:22:13;;;;;;;;;;;;;;;23.79;46.33;101453.75;4995033;28;4345;-67
2022/08/02 07:24:39;;;;;;;;;;;;;;;23.79;46.51;101456.66;4995637;28;4244;-67
2022/08/02 07:27:06;;;;;;;;;;;;;;;23.91;45.94;101459.31;4991906;28;4626;-69
2022/08/02 07:29:38;;;;;;;;;;;;;;;23.68;47.16;101461.22;4999815;28;4156;-70
2022/08/02 07:32:18;;;;;;;;;;;;;;;23.74;46.35;101452.84;4997478;28;4228;-69
2022/08/02 07:34:45;;;;;;;;;;;;;;;23.80;46.85;101458.91;4997542;28;4196;-68
2022/08/02 07:37:22;;;;;;;;;;;;;;;24.01;46.44;101453.94;4998075;28;4308;-67
2022/08/02 07:40:09;;;;;;;;;;;;;;;23.78;46.19;101453.03;5002854;28;4278;-68
2022/08/02 07:42:41;;;;;;;;;;;;;;;23.97;46.47;101450.88;4998795;28;4246;-69
2022/08/02 07:45:07;;;;;;;;;;;;;;;23.83;45.79;101448.88;4996490;28;4267;-66
2022/08/02 07:47:37;;;;;;;;;;;;;;;23.88;45.74;101446.91;4992371;28;5168;-67
2022/08/02 07:50:04;;;;;;;;;;;;;;;23.98;45.84;101453.13;4995391;28;5307;-67
2022/08/02 07:52:30;;;;;;;;;;;;;;;24.06;45.75;101446.19;4997641;28;4510;-68
2022/08/02 07:54:56;;;;;;;;;;;;;;;24.07;45.94;101436.81;4994621;28;4236;-68
2022/08/02 07:57:24;;;;;;;;;;;;;;;24.11;46.15;101442.03;4987718;28;4036;-67
2022/08/02 07:59:50;;;;;;;;;;;;;;;24.10;46.28;101447.09;4992359;28;4215;-68
2022/08/02 08:02:16;;;;;;;;;;;;;;;24.07;46.21;101445.50;4988217;28;4498;-64
2022/08/02 08:04:43;;;;;;;;;;;;;;;23.68;45.82;101435.22;4993450;28;4878;-65
2022/08/02 08:07:10;;;;;;;;;;;;;;;23.83;46.00;101431.53;4995143;28;4359;-69
2022/08/02 08:09:40;;;;;;;;;;;;;;;23.95;45.95;101439.97;5000531;28;4484;-74
2022/08/02 08:12:07;;;;;;;;;;;;;;;23.86;45.99;101443.19;5001062;28;5349;-79
2022/08/02 08:14:34;;;;;;;;;;;;;;;24.09;45.65;101442.69;5000379;28;5355;-69
2022/08/02 08:17:01;;;;;;;;;;;;;;;24.10;45.41;101438.41;4993422;28;4197;-68
2022/08/02 08:19:27;;;;;;;;;;;;;;;24.11;45.27;101433.34;4999447;28;4343;-72
2022/08/02 08:22:14;;;;;;;;;;;;;;;23.89;45.54;101427.41;4998957;28;5510;-70
2022/08/02 08:24:40;;;;;;;;;;;;;;;24.06;45.76;101426.66;4999929;28;4260;-69
2022/08/02 08:27:13;;;;;;;;;;;;;;;24.12;46.20;101424.03;4991070;28;4473;-75
2022/08/02 08:29:40;;;;;;;;;;;;;;;24.18;45.28;101424.25;4995564;28;4293;-68
2022/08/02 08:32:07;;;;;;;;;;;;;;;24.17;45.39;101425.66;4995646;28;4319;-68
2022/08/02 08:34:39;;;;;;;;;;;;;;;23.70;45.42;101423.00;5001746;28;4216;-71
2022/08/02 08:37:05;;;;;;;;;;;;;;;23.79;45.76;101422.69;5003330;28;6717;-74
2022/08/02 08:39:32;;;;;;;;;;;;;;;24.06;45.78;101417.97;5003923;28;4177;-72
2022/08/02 08:41:58;;;;;;;;;;;;;;;24.16;45.92;101406.81;5001605;28;5341;-72
2022/08/02 08:44:26;;;;;;;;;;;;;;;24.10;46.08;101418.16;4998387;28;4239;-77
2022/08/02 08:46:52;;;;;;;;;;;;;;;24.23;45.82;101402.75;5001253;28;4184;-73
2022/08/02 08:49:25;;;;;;;;;;;;;;;24.22;45.73;101407.03;5000940;28;4226;-71
2022/08/02 08:51:53;;;;;;;;;;;;;;;24.16;46.13;101415.47;5000912;28;4253;-65
2022/08/02 08:54:19;;;;;;;;;;;;;;;23.94;46.37;101417.50;4990773;28;4224;-73
2022/08/02 08:56:46;;;;;;;;;;;;;;;23.97;46.38;101416.91;4997510;28;5257;-71
2022/08/02 08:59:12;;;;;;;;;;;;;;;23.99;46.30;101413.38;4998162;28;4224;-72
2022/08/02 09:01:38;;;;;;;;;;;;;;;24.11;46.65;101418.88;4996114;28;4242;-68
2022/08/02 09:04:16;;;;;;;;;;;;;;;24.03;45.99;101422.94;4998726;28;5653;-71
2022/08/02 09:06:43;;;;;;;;;;;;;;;23.97;45.10;101411.13;4993800;28;5370;-71
2022/08/02 09:09:09;;;;;;;;;;;;;;;23.98;46.23;101420.53;4987438;28;4513;-71
2022/08/02 09:11:36;;;;;;;;;;;;;;;24.06;46.09;101405.69;4991936;28;4261;-70
2022/08/02 09:14:02;;;;;;;;;;;;;;;24.19;45.73;101408.38;4990808;28;4247;-67
2022/08/02 09:16:35;;;;;;;;;;;;;;;24.08;46.07;101415.16;4985199;28;4173;-68
2022/08/02 09:19:16;;;;;;;;;;;;;;;24.04;45.69;101409.97;4987255;28;4269;-67
2022/08/02 09:21:42;;;;;;;;;;;;;;;23.96;45.25;101414.66;4992259;28;5341;-67
2022/08/02 09:24:16;;;;;;;;;;;;;;;23.97;45.06;101404.59;4993170;28;4230;-67
2022/08/02 09:26:42;;;;;;;;;;;;;;;23.99;45.24;101419.88;4997532;28;4330;-67
2022/08/02 09:29:09;;;;;;;;;;;;;;;24.00;45.13;101414.84;4992439;28;4317;-68
2022/08/02 09:31:36;;;;;;;;;;;;;;;23.94;45.24;101405.94;4993221;28;4440;-67
2022/08/02 09:34:03;;;;;;;;;;;;;;;24.00;45.36;101403.25;4992532;28;4173;-67
2022/08/02 09:36:39;;;;;;;;;;;;;;;23.99;45.95;101407.56;4998187;28;4202;-68
2022/08/02 09:39:06;;;;;;;;;;;;;;;24.00;45.43;101401.13;4994700;28;4157;-67
2022/08/02 09:41:33;;;;;;;;;;;;;;;24.02;45.76;101409.13;4992173;28;5564;-68
2022/08/02 09:44:00;;;;;;;;;;;;;;;24.01;46.57;101401.88;4997081;28;4261;-68
2022/08/02 09:46:32;;;;;;;;;;;;;;;23.99;46.06;101402.53;4993816;28;5256;-68
2022/08/02 09:48:59;;;;;;;;;;;;;;;23.99;45.92;101396.00;4995664;28;4248;-67
2022/08/02 09:51:26;;;;;;;;;;;;;;;24.01;46.23;101404.78;4981093;28;4164;-67
2022/08/02 09:53:56;;;;;;;;;;;;;;;24.01;46.24;101396.09;4989907;28;4238;-65
2022/08/02 09:56:43;;;;;;;;;;;;;;;24.02;46.41;101394.66;4996070;28;4201;-65
2022/08/02 09:59:09;;;;;;;;;;;;;;;24.01;47.10;101407.66;4994786;28;4388;-65
2022/08/02 10:01:36;;;;;;;;;;;;;;;24.01;47.40;101396.81;4987718;28;5318;-67
2022/08/02 10:04:09;;;;;;;;;;;;;;;24.01;47.44;101408.41;4988602;28;4357;-68
2022/08/02 10:06:46;;;;;;;;;;;;;;;24.03;46.93;101413.53;4987724;28;4166;-62
2022/08/02 10:09:12;;;;;;;;;;;;;;;24.21;47.18;101402.69;4984279;28;5453;-67
2022/08/02 10:11:39;;;;;;;;;;;;;;;24.40;46.95;101404.13;4997810;28;4243;-64
2022/08/02 10:14:06;;;;;;;;;;;;;;;24.46;46.30;101406.50;4992367;28;4944;-67
2022/08/02 10:16:33;;;;;;;;;;;;;;;24.52;46.44;101403.13;4999696;28;5293;-71
2022/08/02 10:19:01;;;;;;;;;;;;;;;24.69;46.85;101407.38;4997688;28;4197;-78
2022/08/02 10:21:43;;;;;;;;;;;;;;;24.74;47.08;101406.09;4995016;28;4255;-75
2022/08/02 10:24:13;;;;;;;;;;;;;;;25.05;45.69;101414.50;4998881;28;4243;-68
2022/08/02 10:26:40;;;;;;;;;;;;;;;25.17;45.60;101410.53;4996792;28;4318;-69
2022/08/02 10:29:08;;;;;;;;;;;;;;;25.65;45.30;101405.69;4988893;28;4166;-71
2022/08/02 10:31:37;;;;;;;;;;;;;;;25.89;44.64;101410.84;4988526;28;4268;-67
2022/08/02 10:34:05;;;;;;;;;;;;;;;26.05;44.61;101416.44;4996147;28;4232;-69
2022/08/02 10:36:32;;;;;;;;;;;;;;;25.86;44.33;101423.75;4991950;28;4401;-63
2022/08/02 10:38:59;;;;;;;;;;;;;;;25.07;45.88;101402.97;4999564;28;4221;-67
2022/08/02 10:41:41;;;;;;;;;;;;;;;24.90;46.31;101392.22;4987729;28;5303;-64
2022/08/02 10:44:08;;;;;;;;;;;;;;;24.86;46.94;101377.59;4993697;28;4361;-63
2022/08/02 10:46:50;;;;;;;;;;;;;;;24.86;47.14;101392.06;4994688;28;4357;-60
2022/08/02 10:49:20;;;;;;;;;;;;;;;24.91;46.93;101376.31;5000320;28;4399;-62
2022/08/02 10:52:05;;;;;;;;;;;;;;;24.88;47.09;101375.50;5000129;28;4142;-65
2022/08/02 10:54:32;;;;;;;;;;;;;;;24.76;47.03;101359.84;5002436;28;4210;-66
2022/08/02 10:56:59;;;;;;;;;;;;;;;24.84;47.18;101363.03;4997926;28;4448;-71
2022/08/02 10:59:27;;;;;;;;;;;;;;;24.84;47.17;101360.13;4997877;28;4357;-66
2022/08/02 11:02:00;;;;;;;;;;;;;;;24.85;47.58;101353.69;4986975;28;6135;-63
2022/08/02 11:04:27;;;;;;;;;;;;;;;24.99;46.99;101341.09;4987124;28;4980;-63
2022/08/02 11:07:06;;;;;;;;;;;;;;;24.91;47.37;101344.44;4998299;28;4388;-65
2022/08/02 11:09:33;;;;;;;;;;;;;;;24.83;47.45;101342.03;5004305;28;5259;-66
2022/08/02 11:12:00;;;;;;;;;;;;;;;24.79;47.78;101349.81;5008065;28;4171;-68
2022/08/02 11:14:26;;;;;;;;;;;;;;;24.75;47.67;101347.50;5000985;28;4434;-64
2022/08/02 11:16:55;;;;;;;;;;;;;;;24.79;48.03;101349.81;4997500;28;5518;-65
2022/08/02 11:19:25;;;;;;;;;;;;;;;24.77;48.33;101338.16;4994136;28;4218;-68
2022/08/02 11:22:01;;;;;;;;;;;;;;;24.81;48.09;101330.38;5004991;28;4232;-65
2022/08/02 11:24:31;;;;;;;;;;;;;;;24.83;48.62;101344.16;5001746;28;5313;-69
2022/08/02 11:26:58;;;;;;;;;;;;;;;24.96;48.43;101340.28;4997464;28;4259;-67
2022/08/02 11:29:31;;;;;;;;;;;;;;;24.93;47.87;101350.31;4995557;28;4189;-63
2022/08/02 11:32:04;;;;;;;;;;;;;;;24.90;47.95;101342.97;4995983;28;4260;-61
2022/08/02 11:34:30;;;;;;;;;;;;;;;24.94;48.03;101331.53;4994861;28;4320;-67
2022/08/02 11:37:03;;;;;;;;;;;;;;;24.95;48.19;101333.00;4997479;28;4283;-68
2022/08/02 11:39:29;;;;;;;;;;;;;;;25.00;47.73;101328.84;4996526;28;4248;-64
2022/08/02 11:41:57;;;;;;;;;;;;;;;24.90;48.18;101325.59;4997850;28;4246;-70
2022/08/02 11:44:27;;;;;;;;;;;;;;;25.04;48.24;101326.09;4996930;28;4244;-68
2022/08/02 11:46:54;;;;;;;;;;;;;;;24.91;48.24;101332.88;4990458;28;5368;-63
2022/08/02 11:49:21;;;;;;;;;;;;;;;24.93;48.25;101330.03;4993054;28;4242;-63
2022/08/02 11:51:59;;;;;;;;;;;;;;;24.93;48.41;101320.63;4996828;28;4065;-71
2022/08/02 11:54:26;;;;;;;;;;;;;;;24.92;48.45;101325.66;4992256;28;4418;-62
2022/08/02 11:56:53;;;;;;;;;;;;;;;24.98;48.57;101322.97;4991218;28;4331;-64
2022/08/02 11:59:19;;;;;;;;;;;;;;;24.94;48.10;101322.81;4994325;28;5156;-72
2022/08/02 12:01:45;;;;;;;;;;;;;;;24.90;48.62;101324.84;4995507;28;4244;-68
2022/08/02 12:04:14;;;;;;;;;;;;;;;24.90;48.57;101314.00;4997776;28;5507;-67
2022/08/02 12:06:41;;;;;;;;;;;;;;;24.94;48.52;101319.94;4996732;28;4058;-67
2022/08/02 12:09:08;;;;;;;;;;;;;;;24.87;49.15;101318.22;5000076;28;4214;-69
2022/08/02 12:11:43;;;;;;;;;;;;;;;24.90;48.79;101314.00;4993894;28;6450;-68
2022/08/02 12:14:10;;;;;;;;;;;;;;;24.88;48.91;101311.03;5004166;28;4247;-71
2022/08/02 12:19:25;;;;;;;;;;;;;;;24.93;48.48;101306.88;4987486;28;4275;-65
2022/08/02 12:22:08;;;;;;;;;;;;;;;24.94;48.79;101296.75;4996584;28;5246;-74
2022/08/02 12:24:35;;;;;;;;;;;;;;;25.09;49.07;101303.78;4999304;28;4180;-74
2022/08/02 12:27:01;;;;;;;;;;;;;;;25.11;48.87;101306.03;4997583;28;4603;-72
2022/08/02 12:29:31;;;;;;;;;;;;;;;24.98;48.95;101299.78;4995872;28;4197;-73
2022/08/02 12:32:22;;;;;;;;;;;;;;;24.85;49.19;101292.09;4997015;28;5452;-72
2022/08/02 12:34:58;;;;;;;;;;;;;;;24.91;49.29;101294.47;4992526;28;4073;-65
2022/08/02 12:37:25;;;;;;;;;;;;;;;24.85;49.31;101286.28;4994928;28;4257;-71
2022/08/02 12:39:52;;;;;;;;;;;;;;;24.81;49.56;101286.19;4998188;28;5354;-69
2022/08/02 12:42:19;;;;;;;;;;;;;;;25.05;49.26;101283.38;4996085;28;4234;-67
2022/08/02 12:44:52;;;;;;;;;;;;;;;25.11;49.14;101282.84;4999336;28;4258;-71
2022/08/02 12:47:20;;;;;;;;;;;;;;;25.23;49.20;101274.56;4999435;28;4311;-73
2022/08/02 12:50:06;;;;;;;;;;;;;;;25.26;48.87;101279.75;4992028;28;4431;-75
2022/08/02 12:52:33;;;;;;;;;;;;;;;25.33;48.87;101280.69;4989530;28;5865;-76
2022/08/02 12:54:59;;;;;;;;;;;;;;;25.59;48.87;101280.78;4992702;28;4266;-71
2022/08/02 12:57:26;;;;;;;;;;;;;;;25.47;48.32;101280.41;4999686;28;4130;-72
2022/08/02 12:59:52;;;;;;;;;;;;;;;25.44;48.39;101276.69;4993056;28;5497;-67
2022/08/02 13:02:19;;;;;;;;;;;;;;;25.45;48.36;101266.59;4990261;28;4241;-69
2022/08/02 13:04:46;;;;;;;;;;;;;;;25.47;48.75;101268.78;4994056;28;4320;-67